Time;durP1;ratioP1;P1;durP2;ratioP2;P2;SDS_P1;SDS_P2;PMS_P1;PMS_P2;Temp;Humidity;BMP_temperature;BMP_pressure;BME280_temperature;BME280_humidity;BME280_pressure;Samples;Min_cycle;Max_cycle;Signal;HPM_P1;HPM_P2
2022/09/30 00:01:24;;;;;;;5.20;2.55;;;;;;;21.84;53.54;99729.28;5035339;28;20507;-82
2022/09/30 00:03:53;;;;;;;4.55;2.80;;;;;;;21.84;53.53;99723.91;5036064;28;20054;-82
2022/09/30 00:06:21;;;;;;;3.72;2.70;;;;;;;21.82;53.52;99726.75;5035179;28;20041;-82
2022/09/30 00:08:48;;;;;;;4.10;3.03;;;;;;;21.83;53.60;99727.56;5035212;28;20071;-81
2022/09/30 00:11:22;;;;;;;2.58;2.33;;;;;;;21.83;53.55;99731.09;5035388;28;20042;-82
2022/09/30 00:13:50;;;;;;;5.80;2.85;;;;;;;21.83;53.45;99732.97;5035968;28;20064;-81
2022/09/30 00:16:19;;;;;;;4.18;2.53;;;;;;;21.82;53.65;99726.75;5035002;28;20048;-81
2022/09/30 00:18:48;;;;;;;3.22;2.40;;;;;;;21.83;53.58;99730.28;5035161;28;20064;-82
2022/09/30 00:21:16;;;;;;;3.80;2.50;;;;;;;21.83;53.58;99732.97;5034897;28;20053;-82
2022/09/30 00:23:44;;;;;;;3.78;2.63;;;;;;;21.82;53.55;99728.59;5035486;28;20057;-82
2022/09/30 00:26:14;;;;;;;4.32;2.67;;;;;;;21.82;53.67;99726.75;5035419;28;20049;-82
2022/09/30 00:28:43;;;;;;;7.05;3.10;;;;;;;21.83;53.62;99724.88;5034789;28;20056;-81
2022/09/30 00:31:14;;;;;;;3.40;2.35;;;;;;;21.82;53.62;99721.34;5034782;28;20042;-81
2022/09/30 00:33:42;;;;;;;3.40;2.72;;;;;;;21.82;53.70;99731.28;5034927;28;20049;-82
2022/09/30 00:36:10;;;;;;;3.25;2.10;;;;;;;21.83;53.58;99738.34;5034861;28;20041;-82
2022/09/30 00:38:37;;;;;;;3.85;2.50;;;;;;;21.82;53.72;99731.28;5035177;28;20400;-80
2022/09/30 00:41:04;;;;;;;4.18;2.70;;;;;;;21.81;53.61;99738.53;5034446;28;20064;-81
2022/09/30 00:43:50;;;;;;;4.25;2.40;;;;;;;21.82;53.56;99742.06;5035052;28;20053;-82
2022/09/30 00:46:33;;;;;;;4.15;2.17;;;;;;;21.82;53.65;99748.28;5035613;28;20373;-81
2022/09/30 00:49:06;;;;;;;3.63;2.50;;;;;;;21.82;53.61;99744.75;5034705;28;20054;-81
2022/09/30 00:51:37;;;;;;;4.45;2.80;;;;;;;21.82;53.88;99752.84;5035062;28;20041;-81
2022/09/30 00:54:11;;;;;;;4.53;2.50;;;;;;;21.81;53.71;99754.72;5035162;28;20057;-81
2022/09/30 00:56:48;;;;;;;4.00;2.63;;;;;;;21.81;53.49;99752.00;5035014;28;20042;-81
2022/09/30 01:02:13;;;;;;;4.10;2.30;;;;;;;21.81;53.62;99745.78;5032352;28;20060;-81
2022/09/30 01:04:41;;;;;;;4.05;3.00;;;;;;;21.81;53.67;99756.56;5034421;28;20045;-81
2022/09/30 01:07:10;;;;;;;3.60;2.50;;;;;;;21.81;53.65;99762.78;5034683;28;20052;-81
2022/09/30 01:09:40;;;;;;;4.93;2.50;;;;;;;21.81;53.67;99761.94;5034892;28;20050;-81
2022/09/30 01:12:15;;;;;;;2.80;2.35;;;;;;;21.80;53.64;99753.03;5034601;28;20056;-81
2022/09/30 01:14:44;;;;;;;4.45;1.90;;;;;;;21.80;53.76;99750.34;5034683;28;20052;-81
2022/09/30 01:17:24;;;;;;;3.63;2.25;;;;;;;21.82;53.76;99758.25;5034457;28;20046;-81
2022/09/30 01:19:51;;;;;;;3.63;2.15;;;;;;;21.81;53.77;99756.56;5034182;28;20469;-81
2022/09/30 01:22:54;;;;;;;3.42;2.42;;;;;;;21.81;53.71;99759.25;5034106;28;20053;-82
2022/09/30 01:25:43;;;;;;;3.00;2.00;;;;;;;21.79;53.72;99764.81;5034273;28;20049;-82
2022/09/30 01:28:21;;;;;;;3.13;2.35;;;;;;;21.80;53.71;99755.72;5034619;28;20365;-82
2022/09/30 01:31:30;;;;;;;3.95;2.30;;;;;;;21.80;53.83;99754.91;5034364;28;20049;-81
2022/09/30 01:34:12;;;;;;;5.13;2.50;;;;;;;21.81;53.67;99759.25;5033164;28;20064;-81
2022/09/30 01:36:54;;;;;;;3.63;2.00;;;;;;;21.79;53.74;99759.41;5034259;28;20037;-81
2022/09/30 01:39:41;;;;;;;3.17;2.00;;;;;;;21.80;53.74;99762.97;5034207;28;20057;-81
2022/09/30 01:42:17;;;;;;;3.95;2.30;;;;;;;21.80;53.74;99765.66;5033856;28;20108;-81
2022/09/30 01:44:45;;;;;;;5.07;2.30;;;;;;;21.78;53.70;99768.53;5033843;28;20049;-81
2022/09/30 01:47:25;;;;;;;2.80;2.05;;;;;;;21.79;53.66;99766.66;5033615;28;20052;-82
2022/09/30 01:50:36;;;;;;;2.40;2.10;;;;;;;21.79;53.75;99764.81;5034345;28;20116;-82
2022/09/30 01:53:39;;;;;;;5.25;2.13;;;;;;;21.79;53.67;99762.09;5031594;28;20050;-82
2022/09/30 01:56:17;;;;;;;3.30;2.47;;;;;;;21.79;53.73;99763.97;4953885;29;20071;-82
2022/09/30 01:59:06;;;;;;;2.58;2.10;;;;;;;21.79;53.75;99770.19;4953857;29;20067;-82
2022/09/30 02:01:45;;;;;;;4.88;2.40;;;;;;;21.79;53.76;99772.03;4954095;29;20047;-82
2022/09/30 02:04:27;;;;;;;3.25;2.00;;;;;;;21.79;53.78;99774.75;4953400;29;20082;-82
2022/09/30 02:06:59;;;;;;;3.70;2.13;;;;;;;21.78;53.85;99768.53;4953785;29;20066;-81
2022/09/30 02:09:42;;;;;;;5.97;2.72;;;;;;;21.77;53.83;99774.94;4953769;29;20062;-81
2022/09/30 02:12:14;;;;;;;3.13;2.25;;;;;;;21.79;53.85;99763.97;4954409;28;20066;-81
2022/09/30 02:14:57;;;;;;;3.67;2.00;;;;;;;21.79;53.85;99762.09;4958142;29;20458;-81
2022/09/30 02:17:32;;;;;;;;;;;;;;;21.78;53.80;99768.53;4957818;29;20055;-82
2022/09/30 02:20:09;;;;;;;3.78;2.20;;;;;;;21.77;53.86;99766.84;4957572;29;19929;-82
2022/09/30 02:22:45;;;;;;;2.75;2.00;;;;;;;21.78;53.88;99770.38;4957552;29;20411;-82
2022/09/30 02:25:32;;;;;;;5.28;2.42;;;;;;;21.77;53.69;99774.94;4957830;29;20531;-82
2022/09/30 02:28:06;;;;;;;3.22;2.28;;;;;;;21.79;53.91;99777.44;4957772;29;20043;-81
2022/09/30 02:30:36;;;;;;;2.20;1.75;;;;;;;21.78;53.82;99767.69;4957054;29;20094;-82
2022/09/30 02:33:14;;;;;;;2.05;1.80;;;;;;;21.78;53.90;99778.47;5010969;28;20061;-82
2022/09/30 02:35:56;;;;;;;2.83;2.20;;;;;;;21.79;53.92;99790.91;5037511;28;20049;-82
2022/09/30 02:38:29;;;;;;;2.38;1.83;;;;;;;21.78;53.91;99786.53;5037535;28;20049;-82
2022/09/30 02:41:02;;;;;;;3.25;2.17;;;;;;;21.78;54.00;99784.69;5036978;28;20054;-83
2022/09/30 02:43:30;;;;;;;;;;;;;;;21.77;53.97;99780.31;5038019;28;20076;-83
2022/09/30 02:46:07;;;;;;;3.28;2.08;;;;;;;21.79;53.99;99790.91;5036714;28;19921;-83
2022/09/30 02:49:02;;;;;;;2.78;1.92;;;;;;;21.78;54.10;99795.47;5037314;28;20033;-82
2022/09/30 02:51:48;;;;;;;4.80;2.65;;;;;;;21.78;54.02;99794.63;5036735;28;20037;-81
2022/09/30 02:54:39;;;;;;;2.63;1.90;;;;;;;21.77;54.12;99798.34;5037229;28;20370;-81
2022/09/30 02:57:19;;;;;;;3.10;2.08;;;;;;;21.78;54.03;99816.16;5037172;28;20045;-81
2022/09/30 02:59:51;;;;;;;3.20;2.83;;;;;;;21.78;54.04;99811.63;5036573;28;20050;-82
2022/09/30 03:02:20;;;;;;;3.10;2.20;;;;;;;21.78;54.04;99808.09;5037056;28;20050;-81
2022/09/30 03:04:49;;;;;;;3.15;1.75;;;;;;;21.77;54.08;99820.72;5036448;28;20049;-80
2022/09/30 03:07:17;;;;;;;3.85;1.90;;;;;;;21.79;54.00;99823.22;5036914;28;20033;-81
2022/09/30 03:09:44;;;;;;;2.60;2.05;;;;;;;21.78;54.09;99824.25;5036348;28;20044;-81
2022/09/30 03:12:27;;;;;;;3.35;2.22;;;;;;;21.78;54.13;99821.56;5036288;28;20072;-81
2022/09/30 03:15:11;;;;;;;3.45;2.30;;;;;;;21.79;54.20;99823.22;5036830;28;20053;-81
2022/09/30 03:17:45;;;;;;;2.70;2.08;;;;;;;21.78;54.19;99808.09;5036120;28;20046;-82
2022/09/30 03:20:21;;;;;;;2.40;2.08;;;;;;;21.77;54.10;99809.94;5037216;28;20053;-82
2022/09/30 03:23:07;;;;;;;3.08;1.95;;;;;;;21.77;54.04;99814.50;5036714;28;20046;-82
2022/09/30 03:25:53;;;;;;;3.38;2.13;;;;;;;21.77;54.03;99820.72;5035824;28;20491;-82
2022/09/30 03:28:28;;;;;;;4.10;1.95;;;;;;;21.76;54.00;99827.13;5036173;28;20042;-82
2022/09/30 03:31:39;;;;;;;2.22;1.67;;;;;;;21.78;54.10;99830.47;5036153;28;20378;-82
2022/09/30 03:34:48;;;;;;;8.70;2.15;;;;;;;21.77;54.19;99836.06;5035489;28;20057;-81
2022/09/30 03:37:37;;;;;;;2.60;1.95;;;;;;;21.77;54.01;99836.06;5036107;28;20048;-81
2022/09/30 03:40:16;;;;;;;3.67;2.10;;;;;;;21.76;54.08;99842.47;5035889;28;20065;-80
2022/09/30 03:42:52;;;;;;;3.28;1.90;;;;;;;21.78;54.06;99853.88;5036147;28;20056;-81
2022/09/30 03:45:29;;;;;;;3.50;2.00;;;;;;;21.77;54.09;99854.91;5035774;28;20053;-81
2022/09/30 03:48:00;;;;;;;3.08;1.95;;;;;;;21.77;54.07;99857.59;5035936;28;20053;-81
2022/09/30 03:50:30;;;;;;;2.85;1.90;;;;;;;21.75;54.06;99855.06;5035017;28;20503;-81
2022/09/30 03:52:57;;;;;;;3.33;2.10;;;;;;;21.76;53.81;99855.94;5035717;28;20489;-81
2022/09/30 03:55:26;;;;;;;2.53;2.08;;;;;;;21.76;53.98;99862.16;5036259;28;20456;-81
2022/09/30 03:57:54;;;;;;;3.45;2.03;;;;;;;21.76;54.08;99861.31;5035332;28;20416;-81
2022/09/30 04:00:22;;;;;;;5.22;2.08;;;;;;;21.76;54.01;99861.31;5035987;28;20496;-81
2022/09/30 04:02:49;;;;;;;4.32;2.90;;;;;;;21.75;54.01;99862.31;5035339;28;20048;-81
2022/09/30 04:05:20;;;;;;;5.60;2.30;;;;;;;21.75;54.00;99865.84;5036142;28;20053;-82
2022/09/30 04:07:47;;;;;;;2.92;1.70;;;;;;;21.76;54.08;99874.78;5035291;28;20053;-81
2022/09/30 04:10:15;;;;;;;3.40;2.10;;;;;;;21.73;54.06;99874.09;5035789;28;20078;-81
2022/09/30 04:12:42;;;;;;;2.85;2.58;;;;;;;21.74;54.03;99874.94;5035030;28;20053;-81
2022/09/30 04:15:09;;;;;;;3.75;1.80;;;;;;;21.75;53.88;99881.16;5035119;28;20045;-81
2022/09/30 04:17:36;;;;;;;3.40;2.25;;;;;;;21.74;53.98;99880.31;5034456;28;20053;-81
2022/09/30 04:20:04;;;;;;;2.72;2.00;;;;;;;21.76;53.94;99882.88;5035013;28;20052;-81
2022/09/30 04:22:31;;;;;;;2.60;2.13;;;;;;;21.75;53.90;99881.16;5034956;28;20053;-81
2022/09/30 04:24:59;;;;;;;3.28;1.90;;;;;;;21.75;53.81;99881.16;5035131;28;20053;-81
2022/09/30 04:27:26;;;;;;;3.45;1.90;;;;;;;21.75;53.78;99878.47;5034786;28;20060;-81
2022/09/30 04:29:53;;;;;;;4.95;2.10;;;;;;;21.75;53.93;99882.00;5034801;28;20050;-81
2022/09/30 04:32:21;;;;;;;2.95;1.90;;;;;;;21.73;53.73;99874.09;5034199;28;20050;-81
2022/09/30 04:34:49;;;;;;;3.25;1.90;;;;;;;21.73;53.88;99886.75;5035213;28;20048;-81
2022/09/30 04:37:16;;;;;;;2.63;1.90;;;;;;;21.73;53.80;99884.03;5035490;28;20048;-81
2022/09/30 04:39:43;;;;;;;3.08;2.28;;;;;;;21.73;53.84;99890.28;5034791;28;20053;-82
2022/09/30 04:42:11;;;;;;;3.20;1.98;;;;;;;21.73;53.72;99894.81;5034522;28;20045;-81
2022/09/30 04:44:38;;;;;;;2.85;2.00;;;;;;;21.72;53.77;99899.38;5035294;28;20045;-82
2022/09/30 04:47:05;;;;;;;3.17;2.00;;;;;;;21.72;53.81;99899.38;5034474;28;20045;-81
2022/09/30 04:49:32;;;;;;;5.25;2.22;;;;;;;21.73;53.82;99898.34;5034474;28;20049;-81
2022/09/30 04:52:00;;;;;;;2.63;2.00;;;;;;;21.72;53.89;99906.63;5034830;28;20428;-81
2022/09/30 04:54:27;;;;;;;2.28;1.90;;;;;;;21.75;53.80;99908.09;5034296;28;20046;-82
2022/09/30 04:56:54;;;;;;;2.60;1.90;;;;;;;21.73;53.76;99900.22;5034722;28;20400;-81
2022/09/30 04:59:22;;;;;;;3.80;1.77;;;;;;;21.72;53.81;99893.97;5034186;28;20427;-79
2022/09/30 05:01:49;;;;;;;3.47;2.10;;;;;;;21.73;53.90;99906.44;5034884;28;20056;-81
2022/09/30 05:04:16;;;;;;;2.20;1.90;;;;;;;21.73;54.17;99905.59;5034052;28;20404;-81
2022/09/30 05:06:44;;;;;;;3.08;2.13;;;;;;;21.72;54.14;99910.16;5034703;28;20504;-82
2022/09/30 05:09:11;;;;;;;2.42;1.88;;;;;;;21.72;54.18;99918.22;5034314;28;20046;-81
2022/09/30 05:11:41;;;;;;;2.30;1.75;;;;;;;21.73;54.25;99937.91;5034030;28;20045;-81
2022/09/30 05:14:09;;;;;;;4.10;2.10;;;;;;;21.72;54.25;99938.94;5033819;28;20053;-82
2022/09/30 05:16:36;;;;;;;2.30;1.90;;;;;;;21.72;54.21;99926.31;5034307;28;20495;-82
2022/09/30 05:19:03;;;;;;;3.60;2.38;;;;;;;21.72;53.95;99934.38;5034398;28;20037;-83
2022/09/30 05:21:31;;;;;;;6.72;2.60;;;;;;;21.72;53.98;99929.00;5034581;28;20432;-82
2022/09/30 05:23:58;;;;;;;3.10;2.20;;;;;;;21.72;54.13;99931.69;5033821;28;20049;-82
2022/09/30 05:26:26;;;;;;;4.38;2.17;;;;;;;21.72;54.06;99947.03;5034034;28;20045;-82
2022/09/30 05:28:53;;;;;;;3.05;2.20;;;;;;;21.72;53.98;99968.56;5033989;28;20041;-82
2022/09/30 05:31:20;;;;;;;5.00;2.08;;;;;;;21.70;54.04;99957.94;5034008;28;20045;-81
2022/09/30 05:33:48;;;;;;;2.10;1.80;;;;;;;21.70;53.90;99952.56;5034265;28;20116;-82
2022/09/30 05:36:15;;;;;;;3.80;2.42;;;;;;;21.70;54.02;99957.94;5034246;28;20048;-82
2022/09/30 05:38:43;;;;;;;3.42;2.15;;;;;;;21.71;53.96;99967.72;5033528;28;20049;-82
2022/09/30 05:41:13;;;;;;;3.78;2.00;;;;;;;21.70;53.92;99979.50;5033386;28;20056;-82
2022/09/30 05:43:46;;;;;;;5.18;2.38;;;;;;;21.71;53.92;99978.50;5033615;28;20049;-81
2022/09/30 05:46:18;;;;;;;3.80;2.30;;;;;;;21.70;53.96;99979.50;5034168;28;20049;-80
2022/09/30 05:48:46;;;;;;;3.78;2.20;;;;;;;21.70;53.92;99982.19;5033824;28;20046;-80
2022/09/30 05:51:13;;;;;;;4.78;2.58;;;;;;;21.70;53.97;99984.88;5033496;28;20056;-80
2022/09/30 05:53:41;;;;;;;6.28;2.60;;;;;;;21.69;53.94;99980.50;5033359;28;20048;-81
2022/09/30 05:56:09;;;;;;;2.83;2.10;;;;;;;21.70;53.93;100003.75;5033424;28;20046;-80
2022/09/30 05:58:39;;;;;;;3.60;2.38;;;;;;;21.70;53.92;100011.81;5034178;28;20037;-83
2022/09/30 06:01:09;;;;;;;2.88;2.10;;;;;;;21.69;53.96;100006.63;5033826;28;20052;-82
2022/09/30 06:03:44;;;;;;;4.70;2.28;;;;;;;21.69;53.95;100007.44;5034175;28;20046;-82
2022/09/30 06:06:12;;;;;;;3.63;2.50;;;;;;;21.69;53.85;100029.00;5033351;28;20049;-82
2022/09/30 06:08:40;;;;;;;2.88;2.00;;;;;;;21.68;53.92;100032.72;5033420;28;20049;-83
2022/09/30 06:11:13;;;;;;;3.10;2.22;;;;;;;21.69;54.00;100038.94;5033660;28;20045;-83
2022/09/30 06:13:41;;;;;;;2.80;2.08;;;;;;;21.69;53.86;100044.31;5034366;28;20389;-82
2022/09/30 06:16:10;;;;;;;5.57;2.30;;;;;;;21.69;53.94;100047.03;5033670;28;20049;-82
2022/09/30 06:18:40;;;;;;;4.53;2.28;;;;;;;21.69;54.15;100055.94;5033787;28;20038;-82
2022/09/30 06:21:10;;;;;;;2.85;2.08;;;;;;;21.70;54.08;100054.09;5033756;28;20041;-82
2022/09/30 06:23:37;;;;;;;2.40;2.10;;;;;;;21.69;53.90;100066.72;5034018;28;20049;-83
2022/09/30 06:26:07;;;;;;;3.08;2.00;;;;;;;21.69;54.09;100058.63;5033540;28;20477;-81
2022/09/30 06:28:34;;;;;;;2.60;1.95;;;;;;;21.68;54.26;100065.03;5033832;28;20397;-84
2022/09/30 06:31:03;;;;;;;3.53;2.13;;;;;;;21.69;54.20;100074.81;5033295;28;20521;-82
2022/09/30 06:33:31;;;;;;;4.82;2.88;;;;;;;21.69;54.15;100080.19;5033544;28;20042;-86
2022/09/30 06:36:03;;;;;;;4.68;2.35;;;;;;;21.69;54.30;100074.81;5034183;28;20052;-84
2022/09/30 06:38:31;;;;;;;3.25;2.38;;;;;;;21.69;54.26;100080.19;5033629;28;20052;-84
2022/09/30 06:40:59;;;;;;;2.67;2.25;;;;;;;21.70;54.20;100086.41;5033411;28;20049;-84
2022/09/30 06:43:27;;;;;;;5.30;2.30;;;;;;;21.70;54.16;100089.09;5032977;28;20496;-84
2022/09/30 06:45:54;;;;;;;4.80;2.55;;;;;;;21.69;54.13;100080.19;5033174;28;20049;-85
2022/09/30 06:48:39;;;;;;;3.55;2.78;;;;;;;21.68;54.01;100075.81;5033688;28;20472;-84
2022/09/30 06:51:09;;;;;;;4.35;2.45;;;;;;;21.69;54.11;100085.56;5032952;28;20045;-84
2022/09/30 06:53:38;;;;;;;4.85;2.25;;;;;;;21.69;54.10;100082.88;5032885;28;20072;-83
2022/09/30 06:56:06;;;;;;;4.00;2.30;;;;;;;21.68;54.22;100078.50;5032926;28;20052;-83
2022/09/30 06:58:33;;;;;;;5.25;2.65;;;;;;;21.69;54.10;100082.03;5033664;28;20480;-83
2022/09/30 07:01:04;;;;;;;3.00;2.30;;;;;;;21.68;54.16;100086.59;5036268;28;20042;-83
2022/09/30 07:03:34;;;;;;;5.13;2.58;;;;;;;21.68;54.16;100083.91;5037450;28;20045;-85
2022/09/30 07:06:04;;;;;;;5.30;2.65;;;;;;;21.69;54.47;100090.13;5036608;28;20069;-81
2022/09/30 07:08:33;;;;;;;3.92;2.80;;;;;;;21.68;53.87;100083.06;5036847;28;20049;-82
2022/09/30 07:11:05;;;;;;;6.30;3.28;;;;;;;21.67;53.60;100090.31;5036825;28;20045;-81
2022/09/30 07:13:33;;;;;;;5.93;3.08;;;;;;;21.68;53.35;100101.91;5035719;28;20064;-81
2022/09/30 07:16:00;;;;;;;3.05;2.75;;;;;;;21.65;53.64;100116.53;5036846;28;20045;-82
2022/09/30 07:18:28;;;;;;;7.75;3.00;;;;;;;21.64;53.48;100122.94;5040980;28;20054;-82
2022/09/30 07:20:55;;;;;;;3.83;2.70;;;;;;;21.64;53.17;100124.81;5054549;28;20076;-81
2022/09/30 07:23:25;;;;;;;4.75;3.15;;;;;;;21.63;53.12;100132.03;5056044;28;20408;-82
2022/09/30 07:25:59;;;;;;;5.18;2.60;;;;;;;21.62;53.03;100133.03;5056114;28;20408;-82
2022/09/30 07:28:30;;;;;;;6.38;2.83;;;;;;;21.61;52.95;100136.72;5056473;28;20068;-82
2022/09/30 07:31:00;;;;;;;4.78;2.85;;;;;;;21.62;52.95;100154.56;5056082;28;20052;-82
2022/09/30 07:33:50;;;;;;;4.60;3.05;;;;;;;21.61;53.02;100160.13;5055801;28;20049;-82
2022/09/30 07:36:25;;;;;;;6.50;3.40;;;;;;;21.60;52.94;100161.16;5055918;28;20480;-82
2022/09/30 07:39:02;;;;;;;4.47;3.30;;;;;;;21.60;53.23;100185.41;5055639;28;20045;-82
2022/09/30 07:41:29;;;;;;;5.30;3.63;;;;;;;21.58;53.17;100177.47;5056234;28;20053;-82
2022/09/30 07:43:58;;;;;;;4.90;3.15;;;;;;;21.58;53.09;100184.69;5055826;28;20047;-79
2022/09/30 07:46:29;;;;;;;5.72;3.30;;;;;;;21.57;53.13;100175.78;5055560;28;20056;-81
2022/09/30 07:49:00;;;;;;;4.88;3.40;;;;;;;21.56;53.17;100181.34;5055477;28;20056;-81
2022/09/30 07:51:37;;;;;;;6.35;3.40;;;;;;;21.56;53.13;100174.09;5055668;28;20056;-81
2022/09/30 07:54:13;;;;;;;6.10;3.22;;;;;;;21.55;53.23;100176.94;5054459;28;20053;-81
2022/09/30 07:56:42;;;;;;;6.10;3.08;;;;;;;21.56;53.26;100189.41;5055446;28;20045;-80
2022/09/30 07:59:31;;;;;;;4.65;3.22;;;;;;;21.56;53.44;100194.81;5055218;28;20052;-80
2022/09/30 08:01:59;;;;;;;4.35;3.10;;;;;;;21.55;53.51;100202.00;5054754;28;20049;-81
2022/09/30 08:04:26;;;;;;;8.73;3.67;;;;;;;21.55;53.45;100204.72;5055109;28;20056;-80
2022/09/30 08:06:56;;;;;;;3.83;2.83;;;;;;;21.55;53.43;100215.47;5055131;28;20052;-80
2022/09/30 08:09:26;;;;;;;5.75;2.88;;;;;;;21.55;53.48;100209.25;5055157;28;20045;-80
2022/09/30 08:11:54;;;;;;;11.77;3.28;;;;;;;21.55;53.67;100211.94;5053683;28;20052;-80
2022/09/30 08:14:24;;;;;;;8.40;3.53;;;;;;;21.54;53.79;100211.09;5055490;28;20049;-80
2022/09/30 08:16:52;;;;;;;6.47;3.00;;;;;;;21.54;54.00;100208.41;5055336;28;20044;-79
2022/09/30 08:19:21;;;;;;;5.95;3.03;;;;;;;21.53;53.78;100205.91;5054779;28;20048;-80
2022/09/30 08:21:49;;;;;;;6.28;3.83;;;;;;;21.51;54.01;100214.13;5054725;28;20045;-79
2022/09/30 08:24:17;;;;;;;9.73;3.50;;;;;;;21.51;53.88;100224.03;5054859;28;20519;-80
2022/09/30 08:26:45;;;;;;;5.78;2.83;;;;;;;21.50;54.18;100227.75;5054967;28;20484;-79
2022/09/30 08:29:13;;;;;;;4.55;2.55;;;;;;;21.48;54.21;100225.22;5054924;28;20419;-80
2022/09/30 08:31:51;;;;;;;5.03;3.40;;;;;;;21.47;54.41;100231.59;5054645;28;20048;-80
2022/09/30 08:34:25;;;;;;;6.90;3.10;;;;;;;21.46;54.30;100238.84;5053310;28;20056;-80
2022/09/30 08:36:53;;;;;;;5.93;3.22;;;;;;;21.45;54.54;100241.69;5036978;28;20485;-79
2022/09/30 08:39:26;;;;;;;4.47;2.80;;;;;;;21.44;54.58;100243.56;5033505;28;20493;-78
2022/09/30 08:42:05;;;;;;;4.32;2.72;;;;;;;21.44;54.70;100246.25;5035079;28;20388;-78
2022/09/30 08:44:51;;;;;;;3.53;2.88;;;;;;;21.43;54.70;100247.25;5034982;28;20064;-79
2022/09/30 08:47:53;;;;;;;2.90;2.28;;;;;;;21.45;54.70;100249.78;5034421;28;20057;-78
2022/09/30 08:51:04;;;;;;;4.03;3.00;;;;;;;21.46;54.72;100252.31;5034559;28;20042;-79
2022/09/30 08:53:38;;;;;;;7.10;2.95;;;;;;;21.46;54.58;100255.00;5068298;28;20053;-79
2022/09/30 08:56:06;;;;;;;5.72;3.67;;;;;;;21.47;54.72;100256.72;5052170;28;20063;-79
2022/09/30 08:58:37;;;;;;;4.40;2.42;;;;;;;21.48;54.60;100255.69;5052144;28;20060;-80
2022/09/30 09:01:28;;;;;;;5.15;2.30;;;;;;;21.50;54.63;100262.75;5052157;28;20547;-78
2022/09/30 09:03:58;;;;;;;4.10;2.63;;;;;;;21.49;54.70;100270.00;5051590;28;20179;-78
2022/09/30 09:06:55;;;;;;;6.13;3.20;;;;;;;21.51;54.85;100291.38;5051777;28;20075;-78
2022/09/30 09:09:42;;;;;;;4.18;2.72;;;;;;;21.50;54.81;100282.47;5052240;28;20072;-79
2022/09/30 09:12:33;;;;;;;3.50;2.50;;;;;;;21.52;54.82;100285.84;5052221;28;20056;-78
2022/09/30 09:15:08;;;;;;;4.47;2.67;;;;;;;21.51;54.82;100280.59;5052207;28;20052;-78
2022/09/30 09:18:01;;;;;;;3.90;2.85;;;;;;;21.51;54.84;100280.59;5052065;28;20057;-78
2022/09/30 09:20:55;;;;;;;5.63;2.57;;;;;;;21.52;54.79;100280.47;5051769;28;20408;-78
2022/09/30 09:23:23;;;;;;;3.55;2.13;;;;;;;21.52;54.88;100288.53;5049785;28;20420;-79
2022/09/30 09:25:54;;;;;;;4.05;2.78;;;;;;;21.53;54.85;100284.84;5033713;28;20516;-79
2022/09/30 09:29:04;;;;;;;3.95;2.72;;;;;;;21.53;54.86;100289.38;5033069;28;20057;-79
2022/09/30 09:31:31;;;;;;;3.90;2.67;;;;;;;21.53;55.03;100284.84;5032560;28;20080;-79
2022/09/30 09:34:07;;;;;;;4.28;2.47;;;;;;;21.53;55.01;100289.38;5033607;28;20045;-79
2022/09/30 09:36:34;;;;;;;3.40;2.55;;;;;;;21.54;55.13;100291.06;5034032;28;20485;-79
2022/09/30 09:39:11;;;;;;;5.65;2.80;;;;;;;21.54;55.08;100299.16;5033287;28;20408;-79
2022/09/30 09:41:58;;;;;;;6.30;2.92;;;;;;;21.53;55.18;100292.91;5033694;28;20041;-79
2022/09/30 09:44:38;;;;;;;3.90;2.85;;;;;;;21.53;55.44;100298.31;5033684;28;20061;-80
2022/09/30 09:47:15;;;;;;;5.57;2.88;;;;;;;21.54;55.41;100300.00;5032527;28;20049;-79
2022/09/30 09:49:54;;;;;;;3.95;2.58;;;;;;;21.55;55.47;100301.66;5032494;28;20405;-79
2022/09/30 09:52:41;;;;;;;3.78;2.90;;;;;;;21.55;55.58;100304.34;5033273;28;20049;-79
2022/09/30 09:55:10;;;;;;;3.15;2.40;;;;;;;21.56;55.60;100299.84;5033678;28;20045;-79
2022/09/30 09:57:39;;;;;;;2.72;2.20;;;;;;;21.55;55.69;100301.66;5033425;28;20049;-79
2022/09/30 10:03:05;;;;;;;5.30;3.08;;;;;;;21.55;55.86;100309.75;5034381;28;20053;-78
2022/09/30 10:05:40;;;;;;;6.15;3.30;;;;;;;21.52;56.80;100315.47;5034414;28;20052;-77
2022/09/30 10:08:17;;;;;;;9.48;5.00;;;;;;;21.55;58.32;100314.28;5034507;28;20485;-79
2022/09/30 10:10:50;;;;;;;12.00;6.47;;;;;;;21.53;59.14;100317.16;5032965;28;20382;-77
2022/09/30 10:13:23;;;;;;;14.45;6.63;;;;;;;21.53;60.26;100325.25;5034090;28;20507;-78
2022/09/30 10:15:56;;;;;;;15.65;7.30;;;;;;;21.53;60.98;100333.31;5034393;28;20049;-80
2022/09/30 10:18:35;;;;;;;13.00;7.50;;;;;;;21.54;61.56;100336.84;5035070;28;20053;-79
2022/09/30 10:21:20;;;;;;;16.33;7.00;;;;;;;21.50;61.57;100341.72;5033575;28;20045;-80
2022/09/30 10:23:47;;;;;;;9.77;5.57;;;;;;;21.50;61.09;100339.00;5034746;28;20049;-79
2022/09/30 10:26:18;;;;;;;12.45;7.20;;;;;;;21.50;62.12;100336.31;5033485;28;20056;-79
2022/09/30 10:28:47;;;;;;;10.48;5.60;;;;;;;21.48;61.69;100339.19;5034214;28;20049;-79
2022/09/30 10:31:33;;;;;;;9.95;5.78;;;;;;;21.48;61.38;100349.13;5034217;28;20038;-79
2022/09/30 10:34:09;;;;;;;10.98;5.28;;;;;;;21.46;61.26;100341.16;5035014;28;20492;-79
2022/09/30 10:36:42;;;;;;;11.13;5.25;;;;;;;21.46;61.06;100348.41;5037754;28;20046;-79
2022/09/30 10:39:33;;;;;;;7.53;5.03;;;;;;;21.44;61.04;100339.66;5037594;28;20405;-79
2022/09/30 10:42:07;;;;;;;7.53;4.45;;;;;;;21.43;60.99;100338.81;5037292;28;20302;-78
2022/09/30 10:44:53;;;;;;;11.35;5.38;;;;;;;21.42;60.76;100333.56;5037815;28;20052;-79
2022/09/30 10:47:27;;;;;;;8.05;4.85;;;;;;;21.42;60.67;100336.25;5037882;28;20053;-79
2022/09/30 10:50:10;;;;;;;8.50;4.40;;;;;;;21.42;60.66;100341.66;5038064;28;20053;-78
2022/09/30 10:52:46;;;;;;;7.80;4.43;;;;;;;21.40;60.48;100352.59;5038261;28;20055;-78
2022/09/30 10:55:19;;;;;;;5.82;4.07;;;;;;;21.40;60.45;100341.81;5038312;28;20049;-79
2022/09/30 10:57:50;;;;;;;10.10;4.57;;;;;;;21.39;60.40;100340.13;5037939;28;20397;-79
2022/09/30 11:00:20;;;;;;;6.10;3.97;;;;;;;21.38;60.45;100340.28;5037463;28;20052;-79
2022/09/30 11:03:05;;;;;;;7.22;3.53;;;;;;;21.37;60.50;100342.13;5036267;28;20052;-80
2022/09/30 11:05:42;;;;;;;5.68;3.72;;;;;;;21.38;60.52;100337.59;5038307;28;20060;-79
2022/09/30 11:08:25;;;;;;;6.55;3.92;;;;;;;21.36;60.43;100345.81;5037906;28;20052;-79
2022/09/30 11:11:08;;;;;;;5.93;3.75;;;;;;;21.34;60.57;100346.97;5037481;28;20052;-78
2022/09/30 11:13:36;;;;;;;;;;;;;;;21.36;60.61;100353.06;5038084;28;20053;-79
2022/09/30 11:16:31;;;;;;;6.95;3.58;;;;;;;21.35;60.54;100343.28;5037343;28;20301;-79
2022/09/30 11:19:08;;;;;;;4.22;3.20;;;;;;;21.33;60.65;100335.38;5037477;28;20572;-81
2022/09/30 11:21:51;;;;;;;7.05;3.95;;;;;;;21.33;60.89;100345.28;5037643;28;20045;-79
2022/09/30 11:24:34;;;;;;;6.82;3.92;;;;;;;21.32;60.83;100340.88;5037634;28;20056;-79
2022/09/30 11:27:30;;;;;;;5.30;3.63;;;;;;;21.31;60.88;100337.34;5037789;28;20050;-78
2022/09/30 11:30:09;;;;;;;5.57;3.60;;;;;;;21.32;60.56;100347.16;5020305;28;20061;-79
2022/09/30 11:32:58;;;;;;;8.13;4.28;;;;;;;21.33;60.00;100332.66;5037502;28;20053;-79
2022/09/30 11:35:31;;;;;;;5.60;3.50;;;;;;;;;;5038324;28;20056;-79
2022/09/30 11:38:24;;;;;;;10.10;3.90;;;;;;;21.36;59.49;100343.13;5037440;28;20493;-79
2022/09/30 11:41:06;;;;;;;8.20;3.70;;;;;;;21.36;59.39;100337.75;5036085;28;20500;-85
2022/09/30 11:43:51;;;;;;;5.60;4.20;;;;;;;21.38;59.16;100346.50;5037409;28;20060;-80
2022/09/30 11:46:55;;;;;;;11.00;3.65;;;;;;;21.38;59.11;100342.97;5037057;28;20053;-80
2022/09/30 11:49:51;;;;;;;8.27;3.95;;;;;;;21.40;59.05;100357.13;5037235;28;20045;-82
2022/09/30 11:52:27;;;;;;;11.60;3.90;;;;;;;21.41;58.91;100365.03;5038867;28;20049;-84
2022/09/30 11:54:59;;;;;;;3.95;3.13;;;;;;;21.41;59.04;100362.34;5038129;28;20397;-82
2022/09/30 11:57:36;;;;;;;5.13;3.50;;;;;;;21.42;58.93;100360.50;5038007;28;20045;-84
2022/09/30 12:00:14;;;;;;;6.60;3.75;;;;;;;21.42;58.90;100352.41;5037367;28;20420;-83
2022/09/30 12:02:55;;;;;;;6.68;3.78;;;;;;;21.42;58.75;100355.13;5035412;28;20493;-84
2022/09/30 12:05:32;;;;;;;5.47;3.15;;;;;;;21.42;58.79;100361.34;5035647;28;20409;-80
2022/09/30 12:08:26;;;;;;;7.93;4.00;;;;;;;21.43;58.72;100368.44;5036842;28;20052;-82
2022/09/30 12:10:58;;;;;;;5.63;3.45;;;;;;;21.43;58.68;100359.50;5036428;28;20056;-85